Search for airport 
image banner adimage banner adimage banner ad
image banner ad

SCBA - Balmaceda

Located in Balmaceda, Chile

ICAO - SCBA, IATA - BBA

Data provided by Airmate  

General information

Coordinates: S45°54'59" W71°41'13"
Elevation is 1722 feet MSL.
Magnetic variation is 10° East
View others Airports in Aisén del General Carlos Ibañez

Operational data

Special qualification required
Current time UTC:
Current local time:
Weather
TAF: TAF SCBA 052235Z 0600/0700 VRB02KT CAVOK TNM03/0611Z TX12/0619Z PROB30 TEMPO 0607/0612 0500 FZFG OVC002 BECMG 0618/0620 11006KT
View NOTAMs / SUP AIP / TFR affecting this airport [VIEW]
Communications frequencies: [VIEW]

Runways:

RWY identifierQFULength (ft)Width (ft)SurfaceLDA (ft)
09100°8205148ASPH
27280°8205148ASPH

Airport contact information

Address: Balmaceda Chile

Satellite view of SCBA